Fsl New York — 9VBQ8 — position and weather

sailwx.info

Track history (hours):
 
Tides and Currents Weather Stations Pressure Air Temp Water Temp Dewpoint Dewpoint Depression Visibility Wind Speed Wind Dir Waves Ship Positions

Fsl New York

Last reported at 2015-Aug-03 07:33 UTC. Time now 2015-Aug-03 21:26 UTC.
Position N 50°34' E 000°18'.

Length 138 m; draft 10 m.

Type: Tanker. MMSI: 565174000.

Date/timePositionNaut miles runAvg speedWind from/ knotsBaromVisibWave heightAir tempDewpointWater temp
2015-Aug-03 07:33N 50°34' E 000°18'1313.4
2015-Aug-03 06:33N 50°39' E 000°38'1313.5
2015-Aug-03 05:33N 50°46' E 000°56'1312.5
2015-Aug-03 04:33N 50°55' E 001°11'1110.9
2015-Aug-03 03:33N 51°02' E 001°23'9 9.4
2015-Aug-03 02:33N 51°08' E 001°35'9 9.2
2015-Aug-03 01:33N 51°14' E 001°47'1110.6
2015-Aug-03 00:33N 51°23' E 001°54'1313.0
2015-Aug-02 23:33N 51°34' E 002°07'1514.6
2015-Aug-02 22:33N 51°45' E 002°23'1514.6
2015-Aug-02 21:33N 51°56' E 002°36'3013.7
2015-Aug-02 19:24N 52°25' E 002°49'1012.1
2015-Aug-02 18:33N 52°34' E 002°57'1111.5
2015-Aug-02 17:33N 52°44' E 003°06'1111.1
2015-Aug-02 16:33N 52°54' E 003°15'1110.9
2015-Aug-02 15:33N 53°04' E 003°21'1111.4
2015-Aug-02 14:33N 53°15' E 003°26'1212.2
2015-Aug-02 13:33N 53°27' E 003°32'1712.8
2015-Aug-02 12:15N 53°43' E 003°40'912.8
2015-Aug-02 11:32N 53°49' E 003°52'4711.6
2015-Aug-02 07:28N 54°06' E 005°07'1111.8
2015-Aug-02 06:33N 54°07' E 005°25'4012.9
2015-Aug-02 03:28N 54°12' E 006°33'1213.4
2015-Aug-02 02:33N 54°12' E 006°54'1313.3
2015-Aug-02 01:33N 54°12' E 007°16'1312.5
2015-Aug-02 00:33N 54°10' E 007°38'1212.3
2015-Aug-01 23:33N 54°05' E 007°56'1211.5
2015-Aug-01 22:33N 54°00' E 008°14'1010.0
2015-Aug-01 21:33N 53°58' E 008°31'1010.5
2015-Aug-01 20:33N 53°52' E 008°45'1612.9
2015-Aug-01 19:19N 53°53' E 009°12'1013.7
2015-Aug-01 18:33N 53°46' E 009°24'1414.0
2015-Aug-01 17:33N 53°35' E 009°38'1111.0
2015-Aug-01 16:33N 53°32' E 009°56'1 0.1
2015-Jul-31 21:30N 53°31' E 009°57'1 1.0
2015-Jul-31 20:33N 53°31' E 009°56'9 8.9
2015-Jul-31 19:33N 53°34' E 009°42'1110.0
2015-Jul-31 18:30N 53°42' E 009°30'1010.2
2015-Jul-31 17:33N 53°50' E 009°21'9 9.3
2015-Jul-31 16:33N 53°53' E 009°06'9 9.3
2015-Jul-31 15:33N 53°50' E 008°51'10 9.6
2015-Jul-31 14:33N 53°56' E 008°39'10 9.8
2015-Jul-31 13:33N 53°59' E 008°23'1211.5
2015-Jul-31 12:33N 54°00' E 008°03'1111.1
2015-Jul-31 11:33N 54°05' E 007°46'1312.8
2015-Jul-31 10:33N 54°13' E 007°29'1413.6
2015-Jul-31 09:33N 54°24' E 007°17'1413.9
2015-Jul-31 08:33N 54°36' E 007°04'1913.9
2015-Jul-31 07:12N 54°54' E 006°52'913.9
2015-Jul-31 06:33N 55°02' E 006°47'1413.6
2015-Jul-31 05:33N 55°15' E 006°39'16412.2
2015-Jul-30 16:08N 57°48' E 008°25'6313.2
2015-Jul-30 11:22N 58°37' E 009°41'1113.5
2015-Jul-30 10:34N 58°47' E 009°43'  
2015-Jul-27 21:31N 53°01' E 003°25'1313.7
2015-Jul-27 20:33N 52°49' E 003°17'4011.6
2015-Jul-27 17:05N 52°10' E 003°30'612.1
2015-Jul-27 16:33N 52°06' E 003°39'1110.6
2015-Jul-27 15:33N 52°02' E 003°55'1110.6
2015-Jul-27 14:33N 51°57' E 004°10'1010.3
2015-Jul-27 13:33N 51°54' E 004°26'1 1.0
2015-Jul-27 12:25N 51°53' E 004°27'0 0.0
2015-Jul-27 11:19N 51°53' E 004°27'0 0.0
2015-Jul-27 10:25N 51°53' E 004°27'0 0.0
2015-Jul-27 09:28N 51°53' E 004°27'  
Track history (hours):
 
Tides and Currents Weather Stations Pressure Air Temp Water Temp Dewpoint Dewpoint Depression Visibility Wind Speed Wind Dir Waves Ship Positions

Fsl New York

Last reported at 2015-Aug-03 07:33 UTC. Time now 2015-Aug-03 21:26 UTC.
Position N 50°34' E 000°18'.

Length 138 m; draft 10 m.

Type: Tanker. MMSI: 565174000.

Date/timePositionNaut miles runAvg speedWind from/ knotsBaromVisibWave heightAir tempDewpointWater temp
2015-Aug-03 07:33N 50°34' E 000°18'1313.4
2015-Aug-03 06:33N 50°39' E 000°38'1313.5
2015-Aug-03 05:33N 50°46' E 000°56'1312.5
2015-Aug-03 04:33N 50°55' E 001°11'1110.9
2015-Aug-03 03:33N 51°02' E 001°23'9 9.4
2015-Aug-03 02:33N 51°08' E 001°35'9 9.2
2015-Aug-03 01:33N 51°14' E 001°47'1110.6
2015-Aug-03 00:33N 51°23' E 001°54'1313.0
2015-Aug-02 23:33N 51°34' E 002°07'1514.6
2015-Aug-02 22:33N 51°45' E 002°23'1514.6
2015-Aug-02 21:33N 51°56' E 002°36'3013.7
2015-Aug-02 19:24N 52°25' E 002°49'1012.1
2015-Aug-02 18:33N 52°34' E 002°57'1111.5
2015-Aug-02 17:33N 52°44' E 003°06'1111.1
2015-Aug-02 16:33N 52°54' E 003°15'1110.9
2015-Aug-02 15:33N 53°04' E 003°21'1111.4
2015-Aug-02 14:33N 53°15' E 003°26'1212.2
2015-Aug-02 13:33N 53°27' E 003°32'1712.8
2015-Aug-02 12:15N 53°43' E 003°40'912.8
2015-Aug-02 11:32N 53°49' E 003°52'4711.6
2015-Aug-02 07:28N 54°06' E 005°07'1111.8
2015-Aug-02 06:33N 54°07' E 005°25'4012.9
2015-Aug-02 03:28N 54°12' E 006°33'1213.4
2015-Aug-02 02:33N 54°12' E 006°54'1313.3
2015-Aug-02 01:33N 54°12' E 007°16'1312.5
2015-Aug-02 00:33N 54°10' E 007°38'1212.3
2015-Aug-01 23:33N 54°05' E 007°56'1211.5
2015-Aug-01 22:33N 54°00' E 008°14'1010.0
2015-Aug-01 21:33N 53°58' E 008°31'1010.5
2015-Aug-01 20:33N 53°52' E 008°45'1612.9
2015-Aug-01 19:19N 53°53' E 009°12'1013.7
2015-Aug-01 18:33N 53°46' E 009°24'1414.0
2015-Aug-01 17:33N 53°35' E 009°38'1111.0
2015-Aug-01 16:33N 53°32' E 009°56'1 0.1
2015-Jul-31 21:30N 53°31' E 009°57'1 1.0
2015-Jul-31 20:33N 53°31' E 009°56'9 8.9
2015-Jul-31 19:33N 53°34' E 009°42'1110.0
2015-Jul-31 18:30N 53°42' E 009°30'1010.2
2015-Jul-31 17:33N 53°50' E 009°21'9 9.3
2015-Jul-31 16:33N 53°53' E 009°06'9 9.3
2015-Jul-31 15:33N 53°50' E 008°51'10 9.6
2015-Jul-31 14:33N 53°56' E 008°39'10 9.8
2015-Jul-31 13:33N 53°59' E 008°23'1211.5
2015-Jul-31 12:33N 54°00' E 008°03'1111.1
2015-Jul-31 11:33N 54°05' E 007°46'1312.8
2015-Jul-31 10:33N 54°13' E 007°29'1413.6
2015-Jul-31 09:33N 54°24' E 007°17'1413.9
2015-Jul-31 08:33N 54°36' E 007°04'1913.9
2015-Jul-31 07:12N 54°54' E 006°52'913.9
2015-Jul-31 06:33N 55°02' E 006°47'1413.6
2015-Jul-31 05:33N 55°15' E 006°39'16412.2
2015-Jul-30 16:08N 57°48' E 008°25'6313.2
2015-Jul-30 11:22N 58°37' E 009°41'1113.5
2015-Jul-30 10:34N 58°47' E 009°43'  
2015-Jul-27 21:31N 53°01' E 003°25'1313.7
2015-Jul-27 20:33N 52°49' E 003°17'4011.6
2015-Jul-27 17:05N 52°10' E 003°30'612.1
2015-Jul-27 16:33N 52°06' E 003°39'1110.6
2015-Jul-27 15:33N 52°02' E 003°55'1110.6
2015-Jul-27 14:33N 51°57' E 004°10'1010.3
2015-Jul-27 13:33N 51°54' E 004°26'1 1.0
2015-Jul-27 12:25N 51°53' E 004°27'0 0.0
2015-Jul-27 11:19N 51°53' E 004°27'0 0.0
2015-Jul-27 10:25N 51°53' E 004°27'0 0.0
2015-Jul-27 09:28N 51°53' E 004°27'  

Dump ship's entire track history